createdAt,value
2019-05-13T00:01:53.979Z,102533.16
2019-05-13T00:04:27.681Z,102534.48
2019-05-13T00:07:01.200Z,102522.14
2019-05-13T00:09:34.752Z,102520.36
2019-05-13T00:12:08.279Z,102525.16
2019-05-13T00:14:43.385Z,102519.00
2019-05-13T00:17:16.871Z,102523.22
2019-05-13T00:19:50.369Z,102524.09
2019-05-13T00:22:23.851Z,102524.53
2019-05-13T00:24:57.314Z,102522.30
2019-05-13T00:27:30.740Z,102520.16
2019-05-13T00:30:04.434Z,102528.03
2019-05-13T00:32:37.972Z,102531.45
2019-05-13T00:35:13.934Z,102541.03
2019-05-13T00:37:47.644Z,102544.58
2019-05-13T00:40:21.079Z,102530.98
2019-05-13T00:42:54.639Z,102542.87
2019-05-13T00:45:28.107Z,102552.94
2019-05-13T00:48:04.182Z,102547.24
2019-05-13T00:50:36.724Z,102548.00
2019-05-13T00:53:10.593Z,102544.10
2019-05-13T00:55:44.631Z,102549.70
2019-05-13T00:58:18.234Z,102554.95
2019-05-13T01:00:51.686Z,102551.50
2019-05-13T01:03:28.287Z,102555.05
2019-05-13T01:06:00.200Z,102562.30
2019-05-13T01:08:33.927Z,102566.25
2019-05-13T01:11:08.507Z,102565.37
2019-05-13T01:13:43.467Z,102565.63
2019-05-13T01:16:17.353Z,102560.78
2019-05-13T01:18:50.815Z,102564.71
2019-05-13T01:21:25.616Z,102569.56
2019-05-13T01:23:59.132Z,102569.48
2019-05-13T01:26:33.719Z,102566.03
2019-05-13T01:29:07.723Z,102575.69
2019-05-13T01:31:43.452Z,102570.48
2019-05-13T01:34:18.039Z,102565.98
2019-05-13T01:36:53.439Z,102572.98
2019-05-13T01:39:27.428Z,102578.18
2019-05-13T01:42:03.475Z,102573.85
2019-05-13T01:44:35.865Z,102572.97
2019-05-13T01:47:09.234Z,102575.03
2019-05-13T01:49:43.990Z,102570.13
2019-05-13T01:52:17.539Z,102572.58
2019-05-13T01:54:51.010Z,102571.26
2019-05-13T01:57:24.387Z,102580.88
2019-05-13T01:59:57.857Z,102577.81
2019-05-13T02:02:33.665Z,102585.73
2019-05-13T02:05:07.880Z,102582.87
2019-05-13T02:07:54.519Z,102584.72
2019-05-13T02:10:18.661Z,102585.59
2019-05-13T02:12:53.538Z,102591.32
2019-05-13T02:15:26.956Z,102592.59
2019-05-13T02:18:00.403Z,102588.17
2019-05-13T02:20:33.905Z,102586.41
2019-05-13T02:23:07.344Z,102593.80
2019-05-13T02:25:43.435Z,102599.14
2019-05-13T02:28:16.193Z,102602.20
2019-05-13T02:30:49.698Z,102611.83
2019-05-13T02:33:23.509Z,102607.94
2019-05-13T02:35:58.165Z,102608.76
2019-05-13T02:38:35.585Z,102608.27
2019-05-13T02:41:07.130Z,102607.00
2019-05-13T02:43:44.173Z,102608.72
2019-05-13T02:46:15.632Z,102612.27
2019-05-13T02:48:52.525Z,102603.46
2019-05-13T02:51:24.177Z,102615.17
2019-05-13T02:53:57.700Z,102610.89
2019-05-13T02:56:33.085Z,102608.31
2019-05-13T02:59:06.295Z,102612.11
2019-05-13T03:01:42.992Z,102621.29
2019-05-13T03:04:14.847Z,102615.61
2019-05-13T03:06:48.269Z,102622.06
2019-05-13T03:09:22.942Z,102621.15
2019-05-13T03:11:57.162Z,102622.41
2019-05-13T03:14:32.432Z,102620.21
2019-05-13T03:17:13.073Z,102616.17
2019-05-13T03:19:46.647Z,102628.95
2019-05-13T03:22:22.464Z,102631.97
2019-05-13T03:24:55.221Z,102634.59
2019-05-13T03:27:28.752Z,102637.66
2019-05-13T03:30:04.368Z,102645.47
2019-05-13T03:32:44.115Z,102642.89
2019-05-13T03:35:16.336Z,102646.64
2019-05-13T03:37:47.851Z,102644.09
2019-05-13T03:40:23.049Z,102646.72
2019-05-13T03:43:02.766Z,102649.22
2019-05-13T03:45:37.172Z,102641.83
2019-05-13T03:48:12.186Z,102642.66
2019-05-13T03:50:46.932Z,102643.67
2019-05-13T03:53:23.279Z,102640.66
2019-05-13T03:55:55.631Z,102647.16
2019-05-13T03:58:32.439Z,102651.05
2019-05-13T04:01:04.891Z,102650.67
2019-05-13T04:03:38.450Z,102648.82
2019-05-13T04:06:13.663Z,102648.72
2019-05-13T04:08:47.318Z,102650.66
2019-05-13T04:11:22.588Z,102654.16
2019-05-13T04:13:55.763Z,102650.66
2019-05-13T04:16:32.047Z,102655.95
2019-05-13T04:19:04.470Z,102654.70
2019-05-13T04:21:37.922Z,102645.14
2019-05-13T04:24:12.279Z,102651.30
2019-05-13T04:26:45.996Z,102646.88
2019-05-13T04:29:23.283Z,102654.08
2019-05-13T04:31:55.843Z,102650.38
2019-05-13T04:34:29.418Z,102647.86
2019-05-13T04:37:02.843Z,102646.70
2019-05-13T04:39:46.137Z,102648.06
2019-05-13T04:42:12.357Z,102654.28
2019-05-13T04:44:45.998Z,102657.53
2019-05-13T04:47:22.668Z,102661.58
2019-05-13T04:49:54.496Z,102659.34
2019-05-13T04:52:32.700Z,102655.02
2019-05-13T04:55:04.741Z,102657.98
2019-05-13T04:57:42.216Z,102661.61
2019-05-13T05:00:14.630Z,102655.38
2019-05-13T05:03:22.381Z,102667.55
2019-05-13T05:06:22.673Z,102666.62
2019-05-13T05:09:45.236Z,102668.38
2019-05-13T05:16:46.565Z,102670.03
2019-05-13T05:19:52.260Z,102672.37
2019-05-13T05:23:42.307Z,102657.69
2019-05-13T05:27:32.197Z,102664.05
2019-05-13T05:31:02.177Z,102669.55
2019-05-13T05:33:51.709Z,102677.42
2019-05-13T05:37:11.689Z,102682.09
2019-05-13T05:39:45.140Z,102684.77
2019-05-13T05:42:21.617Z,102685.27
2019-05-13T05:44:56.355Z,102678.91
2019-05-13T05:47:33.222Z,102681.30
2019-05-13T05:50:07.900Z,102680.49
2019-05-13T05:52:43.780Z,102683.16
2019-05-13T05:55:17.346Z,102678.80
2019-05-13T05:57:52.243Z,102683.70
2019-05-13T06:00:26.047Z,102684.70
2019-05-13T06:03:02.523Z,102691.22
2019-05-13T06:05:36.338Z,102689.53
2019-05-13T06:08:11.440Z,102692.31
2019-05-13T06:10:50.166Z,102694.13
2019-05-13T06:13:21.414Z,102697.73
2019-05-13T06:15:55.068Z,102693.84
2019-05-13T06:18:28.612Z,102700.13
2019-05-13T06:21:02.258Z,102701.39
2019-05-13T06:23:36.857Z,102703.09
2019-05-13T06:26:12.542Z,102699.22
2019-05-13T06:28:45.472Z,102704.58
2019-05-13T06:31:21.370Z,102712.04
2019-05-13T06:33:54.114Z,102707.73
2019-05-13T06:36:28.549Z,102715.22
2019-05-13T06:39:02.531Z,102722.16
2019-05-13T06:41:35.983Z,102727.90
2019-05-13T06:44:11.992Z,102722.25
2019-05-13T06:46:44.579Z,102727.05
2019-05-13T06:49:18.017Z,102730.48
2019-05-13T06:51:52.751Z,102726.41
2019-05-13T06:54:26.382Z,102740.08
2019-05-13T06:57:04.516Z,102732.17
2019-05-13T06:59:35.150Z,102739.16
2019-05-13T07:02:09.479Z,102744.34
2019-05-13T07:04:42.849Z,102745.58
2019-05-13T07:07:17.454Z,102746.95
2019-05-13T07:09:51.698Z,102753.39
2019-05-13T07:12:25.364Z,102744.99
2019-05-13T07:14:58.802Z,102745.98
2019-05-13T07:17:32.472Z,102745.45
2019-05-13T07:20:14.018Z,102758.22
2019-05-13T07:22:47.473Z,102753.71
2019-05-13T07:25:22.172Z,102754.06
2019-05-13T07:27:55.835Z,102755.00
2019-05-13T07:30:44.245Z,102749.32
2019-05-13T07:33:17.763Z,102753.95
2019-05-13T07:35:57.329Z,102750.66
2019-05-13T07:38:26.544Z,102755.37
2019-05-13T07:41:06.352Z,102751.09
2019-05-13T07:43:42.486Z,102756.39
2019-05-13T07:46:14.764Z,102769.59
2019-05-13T07:48:48.239Z,102765.80
2019-05-13T07:51:22.304Z,102760.29
2019-05-13T07:53:55.864Z,102761.99
2019-05-13T07:56:29.249Z,102767.89
2019-05-13T07:59:03.808Z,102764.45
2019-05-13T08:01:37.236Z,102769.34
2019-05-13T08:04:21.394Z,102772.86
2019-05-13T08:06:45.810Z,102770.06
2019-05-13T08:09:21.462Z,102775.25
2019-05-13T08:12:05.461Z,102774.09
2019-05-13T08:14:29.416Z,102768.61
2019-05-13T08:17:03.065Z,102783.21
2019-05-13T08:19:36.559Z,102770.16
2019-05-13T08:22:11.727Z,102772.32
2019-05-13T08:24:45.205Z,102767.98
2019-05-13T08:27:24.028Z,102763.64
2019-05-13T08:29:53.726Z,102770.23
2019-05-13T08:35:58.719Z,102769.26
2019-05-13T08:41:54.762Z,102775.71
2019-05-13T08:44:28.589Z,102772.52
2019-05-13T08:47:03.614Z,102784.50
2019-05-13T08:49:37.128Z,102782.77
2019-05-13T08:52:12.045Z,102778.00
2019-05-13T08:54:45.687Z,102780.27
2019-05-13T08:57:19.167Z,102775.61
2019-05-13T08:59:52.672Z,102770.75
2019-05-13T09:02:26.076Z,102772.09
2019-05-13T09:05:02.320Z,102774.25
2019-05-13T09:07:35.595Z,102781.84
2019-05-13T09:10:09.473Z,102774.66
2019-05-13T09:12:43.492Z,102774.41
2019-05-13T09:15:17.330Z,102779.04
2019-05-13T09:17:51.742Z,102775.95
2019-05-13T09:20:25.229Z,102776.48
2019-05-13T09:22:58.696Z,102783.07
2019-05-13T09:25:32.152Z,102776.45
2019-05-13T09:28:05.746Z,102779.37
2019-05-13T09:30:42.158Z,102788.70
2019-05-13T09:33:14.354Z,102783.50
2019-05-13T09:35:50.204Z,102781.41
2019-05-13T09:38:23.887Z,102769.93
2019-05-13T09:40:57.349Z,102768.62
2019-05-13T09:43:31.601Z,102772.97
2019-05-13T09:46:05.104Z,102773.72
2019-05-13T09:48:38.552Z,102762.89
2019-05-13T09:51:12.531Z,102769.11
2019-05-13T09:53:46.017Z,102770.36
2019-05-13T09:56:19.312Z,102760.28
2019-05-13T09:58:52.743Z,102754.97
2019-05-13T10:01:26.035Z,102750.57
2019-05-13T10:04:02.528Z,102749.27
2019-05-13T10:06:35.733Z,102739.09
2019-05-13T10:09:12.186Z,102744.83
2019-05-13T10:11:45.074Z,102740.41
2019-05-13T10:14:18.448Z,102741.75
2019-05-13T10:16:51.896Z,102731.13
2019-05-13T10:19:25.573Z,102736.39
2019-05-13T10:21:59.138Z,102737.17
2019-05-13T10:24:32.968Z,102727.81
2019-05-13T10:27:06.545Z,102724.73
2019-05-13T10:29:42.506Z,102725.89
2019-05-13T10:32:15.643Z,102729.34
2019-05-13T10:34:52.082Z,102728.22
2019-05-13T10:37:24.670Z,102730.55
2019-05-13T10:39:57.974Z,102731.08
2019-05-13T10:42:31.252Z,102730.24
2019-05-13T10:45:04.684Z,102732.92
2019-05-13T10:47:37.997Z,102727.64
2019-05-13T10:50:11.471Z,102724.52
2019-05-13T10:52:44.699Z,102724.08
2019-05-13T10:55:18.173Z,102713.84
2019-05-13T10:57:51.536Z,102711.88
2019-05-13T11:00:49.104Z,102708.64
2019-05-13T11:03:24.410Z,102705.30
2019-05-13T11:05:57.797Z,102714.67
2019-05-13T11:08:33.145Z,102713.41
2019-05-13T11:11:06.328Z,102715.69
2019-05-13T11:13:52.385Z,102715.70
2019-05-13T11:16:14.597Z,102719.23
2019-05-13T11:18:51.884Z,102706.86
2019-05-13T11:21:25.463Z,102704.62
2019-05-13T11:23:58.810Z,102704.64
2019-05-13T11:26:36.202Z,102702.73
2019-05-13T11:29:07.145Z,102692.21
2019-05-13T11:31:42.746Z,102684.11
2019-05-13T11:34:15.377Z,102675.93
2019-05-13T11:36:48.774Z,102678.52
2019-05-13T11:39:22.383Z,102678.73
2019-05-13T11:41:55.861Z,102677.16
2019-05-13T11:44:31.948Z,102672.34
2019-05-13T11:47:04.058Z,102679.09
2019-05-13T11:49:37.420Z,102675.69
2019-05-13T11:52:11.597Z,102680.25
2019-05-13T11:54:45.263Z,102681.18
2019-05-13T11:57:18.503Z,102679.84
2019-05-13T11:59:52.678Z,102674.52
2019-05-13T12:02:26.119Z,102677.19
2019-05-13T12:05:03.314Z,102667.86
2019-05-13T12:07:36.518Z,102665.23
2019-05-13T12:10:12.461Z,102665.16
2019-05-13T12:12:45.688Z,102663.67
2019-05-13T12:15:33.685Z,102669.51
2019-05-13T12:17:54.282Z,102666.85
2019-05-13T12:20:27.676Z,102661.18
2019-05-13T12:23:03.440Z,102663.44
2019-05-13T12:25:37.333Z,102666.29
2019-05-13T12:28:11.360Z,102651.40
2019-05-13T12:30:45.054Z,102663.13
2019-05-13T12:33:19.060Z,102652.93
2019-05-13T12:35:53.773Z,102644.86
2019-05-13T12:38:27.369Z,102641.71
2019-05-13T12:41:05.364Z,102642.42
2019-05-13T12:43:35.860Z,102629.00
2019-05-13T12:46:12.274Z,102632.02
2019-05-13T12:48:44.313Z,102637.19
2019-05-13T12:51:17.707Z,102630.84
2019-05-13T12:53:52.651Z,102632.02
2019-05-13T12:56:26.393Z,102623.03
2019-05-13T12:59:02.722Z,102622.63
2019-05-13T13:01:35.093Z,102617.83
2019-05-13T13:04:08.456Z,102616.59
2019-05-13T13:06:45.287Z,102610.19
2019-05-13T13:09:18.411Z,102621.52
2019-05-13T13:11:54.513Z,102620.33
2019-05-13T13:14:34.958Z,102613.52
2019-05-13T13:17:04.110Z,102620.09
2019-05-13T13:19:37.354Z,102615.75
2019-05-13T13:22:13.482Z,102614.49
2019-05-13T13:24:52.963Z,102613.13
2019-05-13T13:27:47.110Z,102614.99
2019-05-13T13:30:07.277Z,102613.67
2019-05-13T13:32:37.418Z,102611.93
2019-05-13T13:35:14.721Z,102610.12
2019-05-13T13:37:46.587Z,102612.45
2019-05-13T13:40:28.426Z,102625.23
2019-05-13T13:42:55.466Z,102629.69
2019-05-13T13:45:32.696Z,102631.94
2019-05-13T13:48:05.535Z,102642.08
2019-05-13T13:50:38.991Z,102633.70
2019-05-13T13:53:13.881Z,102633.69
2019-05-13T13:55:47.577Z,102635.92
2019-05-13T13:58:25.381Z,102624.88
2019-05-13T14:01:07.251Z,102627.09
2019-05-13T14:03:33.910Z,102622.25
2019-05-13T14:06:12.351Z,102620.92
2019-05-13T14:08:45.291Z,102611.21
2019-05-13T14:11:18.658Z,102606.37
2019-05-13T14:13:52.134Z,102601.53
2019-05-13T14:16:31.493Z,102594.89
2019-05-13T14:19:02.327Z,102596.66
2019-05-13T14:21:35.806Z,102598.40
2019-05-13T14:24:12.064Z,102601.92
2019-05-13T14:26:46.064Z,102595.77
2019-05-13T14:29:36.314Z,102598.80
2019-05-13T14:32:01.987Z,102599.66
2019-05-13T14:34:36.964Z,102602.30
2019-05-13T14:37:12.073Z,102594.80
2019-05-13T14:39:45.815Z,102596.11
2019-05-13T14:42:22.570Z,102593.91
2019-05-13T14:44:54.946Z,102593.04
2019-05-13T14:47:28.746Z,102589.11
2019-05-13T14:50:02.532Z,102586.42
2019-05-13T14:52:36.176Z,102582.39
2019-05-13T14:55:11.283Z,102579.72
2019-05-13T14:57:47.265Z,102585.03
2019-05-13T15:00:22.477Z,102581.95
2019-05-13T15:02:57.015Z,102577.95
2019-05-13T15:05:31.445Z,102573.50
2019-05-13T15:08:04.943Z,102580.64
2019-05-13T15:10:38.382Z,102570.05
2019-05-13T15:13:12.266Z,102574.48
2019-05-13T15:15:45.622Z,102576.30
2019-05-13T15:18:19.154Z,102575.84
2019-05-13T15:20:53.115Z,102572.75
2019-05-13T15:23:38.947Z,102560.81
2019-05-13T15:26:13.467Z,102565.22
2019-05-13T15:28:51.098Z,102572.75
2019-05-13T15:31:24.503Z,102572.77
2019-05-13T15:33:58.069Z,102572.80
2019-05-13T15:36:32.676Z,102572.77
2019-05-13T15:39:11.283Z,102576.30
2019-05-13T15:41:45.552Z,102578.98
2019-05-13T15:44:21.821Z,102579.89
2019-05-13T15:46:54.527Z,102581.67
2019-05-13T15:49:28.194Z,102584.77
2019-05-13T15:52:02.202Z,102585.67
2019-05-13T15:54:35.646Z,102581.69
2019-05-13T15:57:13.779Z,102581.25
2019-05-13T15:59:47.273Z,102579.48
2019-05-13T16:02:22.622Z,102572.00
2019-05-13T16:05:01.282Z,102562.31
2019-05-13T16:07:32.175Z,102566.70
2019-05-13T16:10:06.510Z,102554.80
2019-05-13T16:12:42.290Z,102549.97
2019-05-13T16:15:16.696Z,102548.63
2019-05-13T16:17:52.089Z,102545.52
2019-05-13T16:20:25.917Z,102545.06
2019-05-13T16:23:02.162Z,102544.63
2019-05-13T16:25:35.216Z,102548.16
2019-05-13T16:28:08.892Z,102545.98
2019-05-13T16:30:42.484Z,102548.20
2019-05-13T16:33:17.320Z,102547.30
2019-05-13T16:35:51.723Z,102550.83
2019-05-13T16:38:25.357Z,102556.58
2019-05-13T16:40:59.553Z,102553.04
2019-05-13T16:43:33.030Z,102561.86
2019-05-13T16:46:07.271Z,102559.64
2019-05-13T16:48:41.581Z,102560.53
2019-05-13T16:51:15.778Z,102554.34
2019-05-13T16:53:49.148Z,102558.34
2019-05-13T16:56:27.852Z,102558.33
2019-05-13T16:58:57.461Z,102551.70
2019-05-13T17:01:30.866Z,102548.16
2019-05-13T17:04:05.239Z,102548.59
2019-05-13T17:06:41.878Z,102545.98
2019-05-13T17:09:15.324Z,102545.97
2019-05-13T17:11:48.754Z,102545.98
2019-05-13T17:14:22.115Z,102547.75
2019-05-13T17:16:55.440Z,102545.97
2019-05-13T17:19:28.814Z,102546.86
2019-05-13T17:22:02.663Z,102549.53
2019-05-13T17:24:36.076Z,102550.85
2019-05-13T17:27:09.483Z,102557.00
2019-05-13T17:29:42.868Z,102552.60
2019-05-13T17:32:16.175Z,102550.83
2019-05-13T17:34:51.423Z,102562.30
2019-05-13T17:37:25.383Z,102559.22
2019-05-13T17:40:01.134Z,102566.28
2019-05-13T17:42:33.936Z,102563.62
2019-05-13T17:45:07.660Z,102567.56
2019-05-13T17:47:41.774Z,102569.30
2019-05-13T17:50:15.549Z,102565.73
2019-05-13T17:52:51.218Z,102575.44
2019-05-13T17:55:23.936Z,102572.36
2019-05-13T17:57:57.273Z,102570.13
2019-05-13T18:00:32.242Z,102579.80
2019-05-13T18:03:05.879Z,102577.55
2019-05-13T18:05:39.083Z,102580.22
2019-05-13T18:08:12.354Z,102583.69
2019-05-13T18:10:45.585Z,102587.61
2019-05-13T18:13:21.355Z,102582.78
2019-05-13T18:15:54.003Z,102590.66
2019-05-13T18:18:39.174Z,102594.62
2019-05-13T18:21:02.411Z,102592.38
2019-05-13T18:23:35.816Z,102598.94
2019-05-13T18:26:09.233Z,102594.97
2019-05-13T18:28:42.665Z,102600.64
2019-05-13T18:31:16.064Z,102596.69
2019-05-13T18:33:51.073Z,102601.09
2019-05-13T18:36:24.465Z,102608.09
2019-05-13T18:38:57.925Z,102605.01
2019-05-13T18:41:31.668Z,102605.45
2019-05-13T18:44:05.143Z,102609.41
2019-05-13T18:46:38.602Z,102605.91
2019-05-13T18:49:12.239Z,102615.56
2019-05-13T18:51:45.503Z,102608.94
2019-05-13T18:54:18.934Z,102615.03
2019-05-13T18:56:52.495Z,102610.14
2019-05-13T18:59:26.879Z,102614.96
2019-05-13T19:02:01.548Z,102614.06
2019-05-13T19:04:36.056Z,102622.89
2019-05-13T19:07:09.465Z,102623.73
2019-05-13T19:09:42.724Z,102618.38
2019-05-13T19:12:16.155Z,102616.97
2019-05-13T19:14:52.918Z,102620.41
2019-05-13T19:17:26.390Z,102616.41
2019-05-13T19:19:59.837Z,102624.29
2019-05-13T19:22:33.468Z,102623.72
2019-05-13T19:25:07.377Z,102616.23
2019-05-13T19:27:41.521Z,102620.48
2019-05-13T19:30:15.207Z,102617.70
2019-05-13T19:32:48.686Z,102623.75
2019-05-13T19:35:22.618Z,102621.45
2019-05-13T19:37:56.010Z,102614.33
2019-05-13T19:40:31.273Z,102622.64
2019-05-13T19:43:04.514Z,102619.86
2019-05-13T19:45:38.214Z,102618.91
2019-05-13T19:48:12.026Z,102619.66
2019-05-13T19:50:45.458Z,102622.10
2019-05-13T19:53:18.896Z,102617.56
2019-05-13T19:55:52.340Z,102620.53
2019-05-13T19:58:25.778Z,102621.81
2019-05-13T20:00:59.237Z,102622.59
2019-05-13T20:03:32.785Z,102626.13
2019-05-13T20:06:06.264Z,102625.22
2019-05-13T20:08:41.300Z,102623.91
2019-05-13T20:11:14.989Z,102631.22
2019-05-13T20:13:48.456Z,102626.47
2019-05-13T20:16:22.436Z,102624.06
2019-05-13T20:18:55.910Z,102625.31
2019-05-13T20:21:31.755Z,102628.38
2019-05-13T20:24:04.496Z,102620.37
2019-05-13T20:26:37.960Z,102625.59
2019-05-13T20:29:12.376Z,102622.38
2019-05-13T20:31:46.201Z,102620.95
2019-05-13T20:34:22.048Z,102622.27
2019-05-13T20:36:54.949Z,102627.45
2019-05-13T20:39:28.900Z,102629.08
2019-05-13T20:42:02.792Z,102624.62
2019-05-13T20:44:36.318Z,102627.25
2019-05-13T20:47:10.171Z,102628.48
2019-05-13T20:49:43.545Z,102631.07
2019-05-13T20:52:17.109Z,102625.77
2019-05-13T20:54:51.225Z,102626.53
2019-05-13T20:57:26.086Z,102624.77
2019-05-13T21:00:01.832Z,102622.55
2019-05-13T21:02:34.949Z,102615.53
2019-05-13T21:05:08.873Z,102620.23
2019-05-13T21:07:42.267Z,102622.91
2019-05-13T21:10:17.018Z,102618.44
2019-05-13T21:12:51.402Z,102623.12
2019-05-13T21:15:25.174Z,102621.72
2019-05-13T21:17:58.825Z,102615.99
2019-05-13T21:20:32.514Z,102619.92
2019-05-13T21:23:06.832Z,102616.78
2019-05-13T21:25:41.811Z,102612.79
2019-05-13T21:28:15.735Z,102618.36
2019-05-13T21:30:51.498Z,102610.47
2019-05-13T21:33:27.415Z,102612.61
2019-05-13T21:36:01.691Z,102606.45
2019-05-13T21:38:36.658Z,102608.98
2019-05-13T21:41:11.778Z,102602.72
2019-05-13T21:43:45.466Z,102601.84
2019-05-13T21:46:21.110Z,102597.91
2019-05-13T21:48:55.137Z,102579.70
2019-05-13T21:51:31.379Z,102600.74
2019-05-13T21:54:04.683Z,102587.61
2019-05-13T21:56:38.208Z,102584.08
2019-05-13T21:59:11.761Z,102588.75
2019-05-13T22:01:45.197Z,102582.97
2019-05-13T22:04:18.739Z,102581.17
2019-05-13T22:06:52.663Z,102578.06
2019-05-13T22:09:26.503Z,102589.72
2019-05-13T22:12:01.895Z,102576.46
2019-05-13T22:14:35.155Z,102580.88
2019-05-13T22:17:09.046Z,102582.14
2019-05-13T22:19:42.823Z,102578.59
2019-05-13T22:22:16.447Z,102576.75
2019-05-13T22:24:51.232Z,102581.03
2019-05-13T22:27:24.799Z,102577.39
2019-05-13T22:30:01.300Z,102576.03
2019-05-13T22:32:34.880Z,102572.86
2019-05-13T22:35:11.029Z,102573.30
2019-05-13T22:37:43.902Z,102572.77
2019-05-13T22:40:18.313Z,102571.35
2019-05-13T22:42:56.823Z,102573.48
2019-05-13T22:45:27.144Z,102571.69
2019-05-13T22:48:02.696Z,102568.57
2019-05-13T22:50:36.066Z,102571.58
2019-05-13T22:53:11.845Z,102567.54
2019-05-13T22:55:44.869Z,102567.54
2019-05-13T22:58:22.359Z,102563.55
2019-05-13T23:00:55.409Z,102570.98
2019-05-13T23:03:30.270Z,102563.35
2019-05-13T23:06:05.402Z,102561.66
2019-05-13T23:08:39.535Z,102571.20
2019-05-13T23:11:13.839Z,102567.27
2019-05-13T23:13:51.343Z,102566.78
2019-05-13T23:16:28.120Z,102573.72
2019-05-13T23:19:05.152Z,102565.84
2019-05-13T23:21:38.897Z,102570.16
2019-05-13T23:24:12.889Z,102568.75
2019-05-13T23:26:47.025Z,102568.31
2019-05-13T23:29:21.369Z,102568.80
2019-05-13T23:31:57.416Z,102565.37
2019-05-13T23:34:32.035Z,102563.95
2019-05-13T23:37:06.225Z,102559.95
2019-05-13T23:39:41.819Z,102559.89
2019-05-13T23:42:21.221Z,102560.34
2019-05-13T23:44:58.750Z,102560.29
2019-05-13T23:47:36.852Z,102550.62
2019-05-13T23:50:13.800Z,102550.67
2019-05-13T23:52:47.933Z,102550.24
2019-05-13T23:55:22.621Z,102547.56
2019-05-13T23:57:56.875Z,102546.27
